sensor_id;sensor_type;location;lat;lon;timestamp;temperature;humidity
12264;DHT22;6194;49.010;8.414;2023-04-03T00:00:12;5.00;99.90
12264;DHT22;6194;49.010;8.414;2023-04-03T00:02:38;5.00;99.90
12264;DHT22;6194;49.010;8.414;2023-04-03T00:05:06;5.00;99.90
12264;DHT22;6194;49.010;8.414;2023-04-03T00:07:31;5.00;99.90
12264;DHT22;6194;49.010;8.414;2023-04-03T00:09:57;5.00;99.90
12264;DHT22;6194;49.010;8.414;2023-04-03T00:12:23;5.10;99.90
12264;DHT22;6194;49.010;8.414;2023-04-03T00:14:48;5.00;99.90
12264;DHT22;6194;49.010;8.414;2023-04-03T00:17:14;5.00;99.90
12264;DHT22;6194;49.010;8.414;2023-04-03T00:19:39;5.00;99.90
12264;DHT22;6194;49.010;8.414;2023-04-03T00:22:05;5.00;99.90
12264;DHT22;6194;49.010;8.414;2023-04-03T00:24:31;5.00;99.90
12264;DHT22;6194;49.010;8.414;2023-04-03T00:26:56;5.30;99.90
12264;DHT22;6194;49.010;8.414;2023-04-03T00:29:22;5.00;99.90
12264;DHT22;6194;49.010;8.414;2023-04-03T00:31:47;5.00;99.90
12264;DHT22;6194;49.010;8.414;2023-04-03T00:34:13;5.00;99.90
12264;DHT22;6194;49.010;8.414;2023-04-03T00:36:38;5.00;99.90
12264;DHT22;6194;49.010;8.414;2023-04-03T00:39:04;5.00;99.90
12264;DHT22;6194;49.010;8.414;2023-04-03T00:41:31;5.00;99.90
12264;DHT22;6194;49.010;8.414;2023-04-03T00:43:57;5.00;99.90
12264;DHT22;6194;49.010;8.414;2023-04-03T00:46:22;5.00;99.90
12264;DHT22;6194;49.010;8.414;2023-04-03T00:48:49;5.00;99.90
12264;DHT22;6194;49.010;8.414;2023-04-03T00:51:23;5.00;99.90
12264;DHT22;6194;49.010;8.414;2023-04-03T00:53:53;5.00;99.90
12264;DHT22;6194;49.010;8.414;2023-04-03T00:56:23;5.10;99.90
12264;DHT22;6194;49.010;8.414;2023-04-03T00:58:59;5.00;99.90
12264;DHT22;6194;49.010;8.414;2023-04-03T01:01:28;5.00;99.90
12264;DHT22;6194;49.010;8.414;2023-04-03T01:03:54;5.00;99.90
12264;DHT22;6194;49.010;8.414;2023-04-03T01:06:24;5.00;99.90
12264;DHT22;6194;49.010;8.414;2023-04-03T01:08:51;5.00;99.90
12264;DHT22;6194;49.010;8.414;2023-04-03T01:11:18;5.00;99.90
12264;DHT22;6194;49.010;8.414;2023-04-03T01:13:44;5.00;99.90
12264;DHT22;6194;49.010;8.414;2023-04-03T01:16:09;5.00;99.90
12264;DHT22;6194;49.010;8.414;2023-04-03T01:18:38;5.00;99.90
12264;DHT22;6194;49.010;8.414;2023-04-03T01:22:09;4.90;99.90
12264;DHT22;6194;49.010;8.414;2023-04-03T01:24:36;4.80;99.90
12264;DHT22;6194;49.010;8.414;2023-04-03T01:27:05;4.80;99.90
12264;DHT22;6194;49.010;8.414;2023-04-03T01:29:31;4.80;99.90
12264;DHT22;6194;49.010;8.414;2023-04-03T01:31:59;4.80;99.90
12264;DHT22;6194;49.010;8.414;2023-04-03T01:34:26;4.80;99.90
12264;DHT22;6194;49.010;8.414;2023-04-03T01:36:52;4.70;99.90
12264;DHT22;6194;49.010;8.414;2023-04-03T01:39:18;4.70;99.90
12264;DHT22;6194;49.010;8.414;2023-04-03T01:41:45;4.70;99.90
12264;DHT22;6194;49.010;8.414;2023-04-03T01:44:11;4.70;99.90
12264;DHT22;6194;49.010;8.414;2023-04-03T01:46:37;4.60;99.90
12264;DHT22;6194;49.010;8.414;2023-04-03T01:49:03;4.50;99.90
12264;DHT22;6194;49.010;8.414;2023-04-03T01:51:30;4.50;99.90
12264;DHT22;6194;49.010;8.414;2023-04-03T01:53:55;4.40;99.90
12264;DHT22;6194;49.010;8.414;2023-04-03T01:56:21;4.30;99.90
12264;DHT22;6194;49.010;8.414;2023-04-03T01:58:46;4.30;99.90
12264;DHT22;6194;49.010;8.414;2023-04-03T02:01:12;4.20;99.90
12264;DHT22;6194;49.010;8.414;2023-04-03T02:03:38;4.20;99.90
12264;DHT22;6194;49.010;8.414;2023-04-03T02:06:03;4.10;99.90
12264;DHT22;6194;49.010;8.414;2023-04-03T02:08:29;4.10;99.90
12264;DHT22;6194;49.010;8.414;2023-04-03T02:10:54;4.10;99.90
12264;DHT22;6194;49.010;8.414;2023-04-03T02:13:20;4.00;99.90
12264;DHT22;6194;49.010;8.414;2023-04-03T02:15:46;4.00;99.90
12264;DHT22;6194;49.010;8.414;2023-04-03T02:18:13;4.00;99.90
12264;DHT22;6194;49.010;8.414;2023-04-03T02:20:38;4.00;99.90
12264;DHT22;6194;49.010;8.414;2023-04-03T02:23:04;4.00;99.90
12264;DHT22;6194;49.010;8.414;2023-04-03T02:25:31;4.00;99.90
12264;DHT22;6194;49.010;8.414;2023-04-03T02:27:56;4.00;99.90
12264;DHT22;6194;49.010;8.414;2023-04-03T02:30:22;4.00;99.90
12264;DHT22;6194;49.010;8.414;2023-04-03T02:32:48;3.90;99.90
12264;DHT22;6194;49.010;8.414;2023-04-03T02:35:13;3.90;99.90
12264;DHT22;6194;49.010;8.414;2023-04-03T02:37:39;3.80;99.90
12264;DHT22;6194;49.010;8.414;2023-04-03T02:40:05;3.80;99.90
12264;DHT22;6194;49.010;8.414;2023-04-03T02:42:31;3.70;99.90
12264;DHT22;6194;49.010;8.414;2023-04-03T02:44:57;3.60;99.90
12264;DHT22;6194;49.010;8.414;2023-04-03T02:47:23;3.60;99.90
12264;DHT22;6194;49.010;8.414;2023-04-03T02:49:48;3.40;99.90
12264;DHT22;6194;49.010;8.414;2023-04-03T02:52:14;3.40;99.90
12264;DHT22;6194;49.010;8.414;2023-04-03T02:54:40;3.40;99.90
12264;DHT22;6194;49.010;8.414;2023-04-03T02:57:06;3.30;99.90
12264;DHT22;6194;49.010;8.414;2023-04-03T02:59:35;3.20;99.90
12264;DHT22;6194;49.010;8.414;2023-04-03T03:02:00;3.20;99.90
12264;DHT22;6194;49.010;8.414;2023-04-03T03:04:26;3.10;99.90
12264;DHT22;6194;49.010;8.414;2023-04-03T03:06:51;3.10;99.90
12264;DHT22;6194;49.010;8.414;2023-04-03T03:09:18;3.00;99.90
12264;DHT22;6194;49.010;8.414;2023-04-03T03:11:43;3.00;99.90
12264;DHT22;6194;49.010;8.414;2023-04-03T03:14:09;3.00;99.90
12264;DHT22;6194;49.010;8.414;2023-04-03T03:16:35;3.00;99.90
12264;DHT22;6194;49.010;8.414;2023-04-03T03:19:00;2.90;99.90
12264;DHT22;6194;49.010;8.414;2023-04-03T03:21:26;2.90;99.90
12264;DHT22;6194;49.010;8.414;2023-04-03T03:23:51;2.90;99.90
12264;DHT22;6194;49.010;8.414;2023-04-03T03:26:17;2.90;99.90
12264;DHT22;6194;49.010;8.414;2023-04-03T03:28:43;2.90;99.90
12264;DHT22;6194;49.010;8.414;2023-04-03T03:31:09;2.90;99.90
12264;DHT22;6194;49.010;8.414;2023-04-03T03:33:35;2.90;99.90
12264;DHT22;6194;49.010;8.414;2023-04-03T03:36:01;2.90;99.90
12264;DHT22;6194;49.010;8.414;2023-04-03T03:38:27;2.90;99.90
12264;DHT22;6194;49.010;8.414;2023-04-03T03:40:53;2.90;99.90
12264;DHT22;6194;49.010;8.414;2023-04-03T03:43:18;3.00;99.90
12264;DHT22;6194;49.010;8.414;2023-04-03T03:45:46;2.90;99.90
12264;DHT22;6194;49.010;8.414;2023-04-03T03:48:12;3.00;99.90
12264;DHT22;6194;49.010;8.414;2023-04-03T03:50:37;3.00;99.90
12264;DHT22;6194;49.010;8.414;2023-04-03T03:53:03;3.00;99.90
12264;DHT22;6194;49.010;8.414;2023-04-03T03:55:28;3.00;99.90
12264;DHT22;6194;49.010;8.414;2023-04-03T03:57:54;3.00;99.90
12264;DHT22;6194;49.010;8.414;2023-04-03T04:00:19;3.00;99.90
12264;DHT22;6194;49.010;8.414;2023-04-03T04:02:45;3.10;99.90
12264;DHT22;6194;49.010;8.414;2023-04-03T04:05:11;3.00;99.90
12264;DHT22;6194;49.010;8.414;2023-04-03T04:07:37;3.00;99.90
12264;DHT22;6194;49.010;8.414;2023-04-03T04:10:02;3.00;99.90
12264;DHT22;6194;49.010;8.414;2023-04-03T04:12:28;3.00;99.90
12264;DHT22;6194;49.010;8.414;2023-04-03T04:14:54;3.10;99.90
12264;DHT22;6194;49.010;8.414;2023-04-03T04:17:19;3.10;99.90
12264;DHT22;6194;49.010;8.414;2023-04-03T04:19:45;3.10;99.90
12264;DHT22;6194;49.010;8.414;2023-04-03T04:22:11;3.10;99.90
12264;DHT22;6194;49.010;8.414;2023-04-03T04:24:36;3.20;99.90
12264;DHT22;6194;49.010;8.414;2023-04-03T04:27:02;3.20;99.90
12264;DHT22;6194;49.010;8.414;2023-04-03T04:29:28;3.30;99.90
12264;DHT22;6194;49.010;8.414;2023-04-03T04:31:53;3.30;99.90
12264;DHT22;6194;49.010;8.414;2023-04-03T04:34:19;3.30;99.90
12264;DHT22;6194;49.010;8.414;2023-04-03T04:36:44;3.30;99.90
12264;DHT22;6194;49.010;8.414;2023-04-03T04:39:10;3.30;99.90
12264;DHT22;6194;49.010;8.414;2023-04-03T04:41:35;3.40;99.90
12264;DHT22;6194;49.010;8.414;2023-04-03T04:44:01;3.40;99.90
12264;DHT22;6194;49.010;8.414;2023-04-03T04:46:26;3.30;99.90
12264;DHT22;6194;49.010;8.414;2023-04-03T04:48:52;3.30;99.90
12264;DHT22;6194;49.010;8.414;2023-04-03T04:51:18;3.20;99.90
12264;DHT22;6194;49.010;8.414;2023-04-03T04:53:44;3.20;99.90
12264;DHT22;6194;49.010;8.414;2023-04-03T04:56:10;3.10;99.90
12264;DHT22;6194;49.010;8.414;2023-04-03T04:58:36;3.20;99.90
12264;DHT22;6194;49.010;8.414;2023-04-03T05:01:03;3.10;99.90
12264;DHT22;6194;49.010;8.414;2023-04-03T05:03:30;3.10;99.90
12264;DHT22;6194;49.010;8.414;2023-04-03T05:05:55;3.10;99.90
12264;DHT22;6194;49.010;8.414;2023-04-03T05:08:21;3.20;99.90
12264;DHT22;6194;49.010;8.414;2023-04-03T05:10:47;3.20;99.90
12264;DHT22;6194;49.010;8.414;2023-04-03T05:13:13;3.20;99.90
12264;DHT22;6194;49.010;8.414;2023-04-03T05:15:39;3.10;99.90
12264;DHT22;6194;49.010;8.414;2023-04-03T05:18:04;3.10;99.90
12264;DHT22;6194;49.010;8.414;2023-04-03T05:20:31;3.00;99.90
12264;DHT22;6194;49.010;8.414;2023-04-03T05:22:57;3.00;99.90
12264;DHT22;6194;49.010;8.414;2023-04-03T05:25:23;2.90;99.90
12264;DHT22;6194;49.010;8.414;2023-04-03T05:27:48;2.90;99.90
12264;DHT22;6194;49.010;8.414;2023-04-03T05:30:14;2.80;99.90
12264;DHT22;6194;49.010;8.414;2023-04-03T05:32:40;2.80;99.90
12264;DHT22;6194;49.010;8.414;2023-04-03T05:35:06;2.80;99.90
12264;DHT22;6194;49.010;8.414;2023-04-03T05:37:33;2.80;99.90
12264;DHT22;6194;49.010;8.414;2023-04-03T05:39:58;2.90;99.90
12264;DHT22;6194;49.010;8.414;2023-04-03T05:42:24;2.90;99.90
12264;DHT22;6194;49.010;8.414;2023-04-03T05:44:50;2.90;99.90
12264;DHT22;6194;49.010;8.414;2023-04-03T05:47:16;3.00;99.90
12264;DHT22;6194;49.010;8.414;2023-04-03T05:49:42;2.90;99.90
12264;DHT22;6194;49.010;8.414;2023-04-03T05:52:30;3.00;99.90
12264;DHT22;6194;49.010;8.414;2023-04-03T05:54:57;2.60;99.90
12264;DHT22;6194;49.010;8.414;2023-04-03T05:57:23;3.10;99.90
12264;DHT22;6194;49.010;8.414;2023-04-03T05:59:49;3.10;99.90
12264;DHT22;6194;49.010;8.414;2023-04-03T06:02:17;3.20;99.90
12264;DHT22;6194;49.010;8.414;2023-04-03T06:04:43;3.30;99.90
12264;DHT22;6194;49.010;8.414;2023-04-03T06:07:17;3.40;99.90
12264;DHT22;6194;49.010;8.414;2023-04-03T06:09:44;3.50;99.90
12264;DHT22;6194;49.010;8.414;2023-04-03T06:12:10;3.50;99.90
12264;DHT22;6194;49.010;8.414;2023-04-03T06:14:36;3.50;99.90
12264;DHT22;6194;49.010;8.414;2023-04-03T06:17:02;3.60;99.90
12264;DHT22;6194;49.010;8.414;2023-04-03T06:19:28;3.70;99.90
12264;DHT22;6194;49.010;8.414;2023-04-03T06:21:54;3.70;99.90
12264;DHT22;6194;49.010;8.414;2023-04-03T06:24:20;3.70;99.90
12264;DHT22;6194;49.010;8.414;2023-04-03T06:26:48;3.80;99.90
12264;DHT22;6194;49.010;8.414;2023-04-03T06:29:14;3.80;99.90
12264;DHT22;6194;49.010;8.414;2023-04-03T06:31:39;3.80;99.90
12264;DHT22;6194;49.010;8.414;2023-04-03T06:34:05;3.80;99.90
12264;DHT22;6194;49.010;8.414;2023-04-03T06:36:32;3.80;99.90
12264;DHT22;6194;49.010;8.414;2023-04-03T06:38:58;3.90;99.90
12264;DHT22;6194;49.010;8.414;2023-04-03T06:41:23;4.00;99.90
12264;DHT22;6194;49.010;8.414;2023-04-03T06:43:51;4.20;99.90
12264;DHT22;6194;49.010;8.414;2023-04-03T06:46:19;4.30;99.90
12264;DHT22;6194;49.010;8.414;2023-04-03T06:48:45;4.90;99.90
12264;DHT22;6194;49.010;8.414;2023-04-03T06:51:24;4.60;99.90
12264;DHT22;6194;49.010;8.414;2023-04-03T06:53:51;4.70;99.90
12264;DHT22;6194;49.010;8.414;2023-04-03T06:56:17;4.80;99.90
12264;DHT22;6194;49.010;8.414;2023-04-03T06:58:43;4.80;99.90
12264;DHT22;6194;49.010;8.414;2023-04-03T07:01:10;4.70;99.90
12264;DHT22;6194;49.010;8.414;2023-04-03T07:03:37;4.60;99.90
12264;DHT22;6194;49.010;8.414;2023-04-03T07:06:04;4.60;99.90
12264;DHT22;6194;49.010;8.414;2023-04-03T07:08:30;4.60;99.90
12264;DHT22;6194;49.010;8.414;2023-04-03T07:10:56;4.60;99.90
12264;DHT22;6194;49.010;8.414;2023-04-03T07:13:21;4.60;99.90
12264;DHT22;6194;49.010;8.414;2023-04-03T07:15:47;4.70;99.90
12264;DHT22;6194;49.010;8.414;2023-04-03T07:18:13;4.70;99.90
12264;DHT22;6194;49.010;8.414;2023-04-03T07:20:40;4.70;99.90
12264;DHT22;6194;49.010;8.414;2023-04-03T07:23:06;4.80;99.90
12264;DHT22;6194;49.010;8.414;2023-04-03T07:25:35;4.90;99.90
12264;DHT22;6194;49.010;8.414;2023-04-03T07:28:04;4.90;99.90
12264;DHT22;6194;49.010;8.414;2023-04-03T07:30:29;5.20;99.90
12264;DHT22;6194;49.010;8.414;2023-04-03T07:32:55;5.00;99.90
12264;DHT22;6194;49.010;8.414;2023-04-03T07:35:20;5.00;99.90
12264;DHT22;6194;49.010;8.414;2023-04-03T07:37:46;4.90;99.90
12264;DHT22;6194;49.010;8.414;2023-04-03T07:40:12;4.90;99.90
12264;DHT22;6194;49.010;8.414;2023-04-03T07:42:38;4.90;99.90
12264;DHT22;6194;49.010;8.414;2023-04-03T07:45:04;5.10;99.90
12264;DHT22;6194;49.010;8.414;2023-04-03T07:47:30;5.30;99.90
12264;DHT22;6194;49.010;8.414;2023-04-03T07:49:56;5.40;99.90
12264;DHT22;6194;49.010;8.414;2023-04-03T07:52:22;5.60;99.90
12264;DHT22;6194;49.010;8.414;2023-04-03T07:54:48;5.80;99.90
12264;DHT22;6194;49.010;8.414;2023-04-03T07:57:14;6.20;99.90
12264;DHT22;6194;49.010;8.414;2023-04-03T07:59:40;5.80;99.90
12264;DHT22;6194;49.010;8.414;2023-04-03T08:02:11;5.70;99.90
12264;DHT22;6194;49.010;8.414;2023-04-03T08:04:37;5.80;99.90
12264;DHT22;6194;49.010;8.414;2023-04-03T08:07:03;5.80;99.90
12264;DHT22;6194;49.010;8.414;2023-04-03T08:09:28;6.00;99.90
12264;DHT22;6194;49.010;8.414;2023-04-03T08:11:54;6.00;99.90
12264;DHT22;6194;49.010;8.414;2023-04-03T08:14:20;5.90;99.90
12264;DHT22;6194;49.010;8.414;2023-04-03T08:16:47;5.80;99.90
12264;DHT22;6194;49.010;8.414;2023-04-03T08:19:14;5.80;99.90
12264;DHT22;6194;49.010;8.414;2023-04-03T08:21:41;5.90;99.90
12264;DHT22;6194;49.010;8.414;2023-04-03T08:24:07;5.90;99.90
12264;DHT22;6194;49.010;8.414;2023-04-03T08:26:33;6.10;99.90
12264;DHT22;6194;49.010;8.414;2023-04-03T08:28:59;6.30;99.90
12264;DHT22;6194;49.010;8.414;2023-04-03T08:31:25;6.40;99.90
12264;DHT22;6194;49.010;8.414;2023-04-03T08:33:51;6.60;99.90
12264;DHT22;6194;49.010;8.414;2023-04-03T08:38:44;6.80;99.90
12264;DHT22;6194;49.010;8.414;2023-04-03T08:46:24;6.90;99.90
12264;DHT22;6194;49.010;8.414;2023-04-03T08:48:51;7.20;99.90
12264;DHT22;6194;49.010;8.414;2023-04-03T08:51:20;7.50;99.90
12264;DHT22;6194;49.010;8.414;2023-04-03T08:54:01;7.90;99.90
12264;DHT22;6194;49.010;8.414;2023-04-03T08:56:30;7.90;99.90
12264;DHT22;6194;49.010;8.414;2023-04-03T08:59:11;8.10;99.90
12264;DHT22;6194;49.010;8.414;2023-04-03T09:01:40;8.00;99.90
12264;DHT22;6194;49.010;8.414;2023-04-03T09:04:12;8.10;99.90
12264;DHT22;6194;49.010;8.414;2023-04-03T09:06:39;8.00;99.90
12264;DHT22;6194;49.010;8.414;2023-04-03T09:14:51;8.00;99.90
12264;DHT22;6194;49.010;8.414;2023-04-03T09:22:35;8.00;99.90
12264;DHT22;6194;49.010;8.414;2023-04-03T09:25:23;8.20;99.90
12264;DHT22;6194;49.010;8.414;2023-04-03T09:27:51;8.30;99.90
12264;DHT22;6194;49.010;8.414;2023-04-03T09:30:20;8.10;99.90
12264;DHT22;6194;49.010;8.414;2023-04-03T09:32:49;8.10;99.90
12264;DHT22;6194;49.010;8.414;2023-04-03T09:35:24;7.80;99.90
12264;DHT22;6194;49.010;8.414;2023-04-03T09:37:59;8.30;99.90
12264;DHT22;6194;49.010;8.414;2023-04-03T09:42:55;7.90;99.90
12264;DHT22;6194;49.010;8.414;2023-04-03T09:45:28;8.00;99.90
12264;DHT22;6194;49.010;8.414;2023-04-03T09:51:00;7.70;99.90
12264;DHT22;6194;49.010;8.414;2023-04-03T09:55:57;8.10;99.90
12264;DHT22;6194;49.010;8.414;2023-04-03T10:00:58;8.30;99.90
12264;DHT22;6194;49.010;8.414;2023-04-03T10:03:30;8.70;99.90
12264;DHT22;6194;49.010;8.414;2023-04-03T10:05:57;9.20;99.90
12264;DHT22;6194;49.010;8.414;2023-04-03T10:08:27;9.20;99.90
12264;DHT22;6194;49.010;8.414;2023-04-03T10:11:10;9.00;99.90
12264;DHT22;6194;49.010;8.414;2023-04-03T10:13:36;9.40;99.90
12264;DHT22;6194;49.010;8.414;2023-04-03T10:16:17;8.50;99.90
12264;DHT22;6194;49.010;8.414;2023-04-03T10:19:20;9.20;99.90
12264;DHT22;6194;49.010;8.414;2023-04-03T10:21:59;9.40;99.90
12264;DHT22;6194;49.010;8.414;2023-04-03T10:24:52;9.10;99.90
12264;DHT22;6194;49.010;8.414;2023-04-03T10:30:21;9.10;99.90
12264;DHT22;6194;49.010;8.414;2023-04-03T10:35:44;9.50;99.90
12264;DHT22;6194;49.010;8.414;2023-04-03T10:41:07;9.80;98.30
12264;DHT22;6194;49.010;8.414;2023-04-03T10:51:34;10.10;96.40
12264;DHT22;6194;49.010;8.414;2023-04-03T10:54:15;9.80;95.90
12264;DHT22;6194;49.010;8.414;2023-04-03T10:56:48;10.70;94.50
12264;DHT22;6194;49.010;8.414;2023-04-03T10:59:45;10.00;95.40
12264;DHT22;6194;49.010;8.414;2023-04-03T11:04:51;9.90;96.90
12264;DHT22;6194;49.010;8.414;2023-04-03T11:07:24;10.40;96.70
12264;DHT22;6194;49.010;8.414;2023-04-03T11:09:58;10.60;95.80
12264;DHT22;6194;49.010;8.414;2023-04-03T11:12:46;10.40;95.10
12264;DHT22;6194;49.010;8.414;2023-04-03T11:15:16;9.90;94.50
12264;DHT22;6194;49.010;8.414;2023-04-03T11:18:06;9.60;94.10
12264;DHT22;6194;49.010;8.414;2023-04-03T11:20:35;9.40;94.00
12264;DHT22;6194;49.010;8.414;2023-04-03T11:23:13;9.20;94.60
12264;DHT22;6194;49.010;8.414;2023-04-03T11:25:42;9.40;94.30
12264;DHT22;6194;49.010;8.414;2023-04-03T11:28:15;9.40;93.30
12264;DHT22;6194;49.010;8.414;2023-04-03T11:36:32;9.40;94.50
12264;DHT22;6194;49.010;8.414;2023-04-03T11:41:54;9.30;94.20
12264;DHT22;6194;49.010;8.414;2023-04-03T11:44:35;9.00;95.20
12264;DHT22;6194;49.010;8.414;2023-04-03T11:47:08;9.30;95.60
12264;DHT22;6194;49.010;8.414;2023-04-03T12:08:47;9.10;95.60
12264;DHT22;6194;49.010;8.414;2023-04-03T12:19:02;9.20;94.20
12264;DHT22;6194;49.010;8.414;2023-04-03T12:40:54;9.10;95.10
12264;DHT22;6194;49.010;8.414;2023-04-03T12:46:24;9.40;95.40
12264;DHT22;6194;49.010;8.414;2023-04-03T12:48:54;9.30;95.30
12264;DHT22;6194;49.010;8.414;2023-04-03T12:51:34;8.90;95.30
12264;DHT22;6194;49.010;8.414;2023-04-03T12:54:30;9.00;94.30
12264;DHT22;6194;49.010;8.414;2023-04-03T12:59:42;8.80;94.80
12264;DHT22;6194;49.010;8.414;2023-04-03T13:04:51;8.90;95.00
12264;DHT22;6194;49.010;8.414;2023-04-03T13:07:36;9.10;95.00
12264;DHT22;6194;49.010;8.414;2023-04-03T13:12:49;9.30;95.10
12264;DHT22;6194;49.010;8.414;2023-04-03T13:15:27;9.30;94.80
12264;DHT22;6194;49.010;8.414;2023-04-03T13:17:53;8.80;94.90
12264;DHT22;6194;49.010;8.414;2023-04-03T13:20:32;8.60;95.10
12264;DHT22;6194;49.010;8.414;2023-04-03T13:23:07;8.80;95.40
12264;DHT22;6194;49.010;8.414;2023-04-03T13:25:36;9.30;94.60
12264;DHT22;6194;49.010;8.414;2023-04-03T13:28:05;9.50;94.10
12264;DHT22;6194;49.010;8.414;2023-04-03T13:30:34;9.30;93.80
12264;DHT22;6194;49.010;8.414;2023-04-03T13:33:05;9.10;93.70
12264;DHT22;6194;49.010;8.414;2023-04-03T13:37:58;9.00;93.10
12264;DHT22;6194;49.010;8.414;2023-04-03T13:40:25;9.30;93.50
12264;DHT22;6194;49.010;8.414;2023-04-03T13:43:05;9.40;93.20
12264;DHT22;6194;49.010;8.414;2023-04-03T13:45:33;9.60;92.80
12264;DHT22;6194;49.010;8.414;2023-04-03T13:48:19;9.50;92.10
12264;DHT22;6194;49.010;8.414;2023-04-03T13:51:00;9.50;92.10
12264;DHT22;6194;49.010;8.414;2023-04-03T13:53:28;9.30;91.40
12264;DHT22;6194;49.010;8.414;2023-04-03T13:56:08;9.40;91.70
12264;DHT22;6194;49.010;8.414;2023-04-03T13:58:35;9.60;91.20
12264;DHT22;6194;49.010;8.414;2023-04-03T14:06:14;9.40;91.80
12264;DHT22;6194;49.010;8.414;2023-04-03T14:08:41;9.20;91.90
12264;DHT22;6194;49.010;8.414;2023-04-03T14:11:11;9.30;92.00
12264;DHT22;6194;49.010;8.414;2023-04-03T14:13:37;9.30;91.50
12264;DHT22;6194;49.010;8.414;2023-04-03T14:16:03;9.10;91.40
12264;DHT22;6194;49.010;8.414;2023-04-03T14:18:29;9.00;91.80
12264;DHT22;6194;49.010;8.414;2023-04-03T14:20:54;9.30;93.10
12264;DHT22;6194;49.010;8.414;2023-04-03T14:23:20;9.20;94.40
12264;DHT22;6194;49.010;8.414;2023-04-03T14:25:46;9.30;94.80
12264;DHT22;6194;49.010;8.414;2023-04-03T14:28:20;9.30;95.00
12264;DHT22;6194;49.010;8.414;2023-04-03T14:30:47;9.20;94.90
12264;DHT22;6194;49.010;8.414;2023-04-03T14:33:16;9.00;94.60
12264;DHT22;6194;49.010;8.414;2023-04-03T14:35:42;8.80;94.60
12264;DHT22;6194;49.010;8.414;2023-04-03T14:38:29;8.90;94.60
12264;DHT22;6194;49.010;8.414;2023-04-03T14:40:56;8.90;94.80
12264;DHT22;6194;49.010;8.414;2023-04-03T14:43:22;9.00;95.10
12264;DHT22;6194;49.010;8.414;2023-04-03T14:45:49;8.90;94.00
12264;DHT22;6194;49.010;8.414;2023-04-03T14:48:24;8.80;93.80
12264;DHT22;6194;49.010;8.414;2023-04-03T14:50:51;8.70;93.70
12264;DHT22;6194;49.010;8.414;2023-04-03T14:53:18;8.70;94.00
12264;DHT22;6194;49.010;8.414;2023-04-03T14:55:49;8.70;93.70
12264;DHT22;6194;49.010;8.414;2023-04-03T14:58:17;8.60;93.80
12264;DHT22;6194;49.010;8.414;2023-04-03T15:00:44;8.80;93.90
12264;DHT22;6194;49.010;8.414;2023-04-03T15:03:14;8.90;94.10
12264;DHT22;6194;49.010;8.414;2023-04-03T15:05:41;9.00;93.90
12264;DHT22;6194;49.010;8.414;2023-04-03T15:08:23;9.00;92.30
12264;DHT22;6194;49.010;8.414;2023-04-03T15:10:50;8.90;91.60
12264;DHT22;6194;49.010;8.414;2023-04-03T15:13:18;9.00;90.90
12264;DHT22;6194;49.010;8.414;2023-04-03T15:15:44;8.90;91.10
12264;DHT22;6194;49.010;8.414;2023-04-03T15:18:25;8.90;91.40
12264;DHT22;6194;49.010;8.414;2023-04-03T15:20:52;9.00;92.10
12264;DHT22;6194;49.010;8.414;2023-04-03T15:23:17;8.70;92.40
12264;DHT22;6194;49.010;8.414;2023-04-03T15:25:45;8.50;92.50
12264;DHT22;6194;49.010;8.414;2023-04-03T15:28:30;8.20;93.00
12264;DHT22;6194;49.010;8.414;2023-04-03T15:30:58;8.20;93.20
12264;DHT22;6194;49.010;8.414;2023-04-03T15:33:24;8.30;93.50
12264;DHT22;6194;49.010;8.414;2023-04-03T15:35:50;8.50;93.10
12264;DHT22;6194;49.010;8.414;2023-04-03T15:38:16;8.70;92.60
12264;DHT22;6194;49.010;8.414;2023-04-03T15:40:41;8.90;91.80
12264;DHT22;6194;49.010;8.414;2023-04-03T15:43:09;9.00;91.90
12264;DHT22;6194;49.010;8.414;2023-04-03T15:45:36;9.00;91.80
12264;DHT22;6194;49.010;8.414;2023-04-03T15:48:04;8.80;91.70
12264;DHT22;6194;49.010;8.414;2023-04-03T15:50:30;8.60;91.20
12264;DHT22;6194;49.010;8.414;2023-04-03T15:52:56;8.30;91.90
12264;DHT22;6194;49.010;8.414;2023-04-03T15:55:25;8.10;91.80
12264;DHT22;6194;49.010;8.414;2023-04-03T15:57:51;7.90;91.90
12264;DHT22;6194;49.010;8.414;2023-04-03T16:00:17;7.90;92.00
12264;DHT22;6194;49.010;8.414;2023-04-03T16:02:45;8.20;92.30
12264;DHT22;6194;49.010;8.414;2023-04-03T16:05:11;8.40;91.80
12264;DHT22;6194;49.010;8.414;2023-04-03T16:07:39;8.70;91.70
12264;DHT22;6194;49.010;8.414;2023-04-03T16:10:06;8.80;91.40
12264;DHT22;6194;49.010;8.414;2023-04-03T16:12:32;8.70;90.30
12264;DHT22;6194;49.010;8.414;2023-04-03T16:14:57;8.30;90.00
12264;DHT22;6194;49.010;8.414;2023-04-03T16:17:23;8.00;90.40
12264;DHT22;6194;49.010;8.414;2023-04-03T16:19:49;7.80;90.70
12264;DHT22;6194;49.010;8.414;2023-04-03T16:22:14;7.70;90.90
12264;DHT22;6194;49.010;8.414;2023-04-03T16:24:40;7.60;91.30
12264;DHT22;6194;49.010;8.414;2023-04-03T16:27:06;7.60;91.90
12264;DHT22;6194;49.010;8.414;2023-04-03T16:29:31;7.80;92.80
12264;DHT22;6194;49.010;8.414;2023-04-03T16:31:58;7.90;92.00
12264;DHT22;6194;49.010;8.414;2023-04-03T16:34:24;8.00;92.30
12264;DHT22;6194;49.010;8.414;2023-04-03T16:36:51;8.10;91.30
12264;DHT22;6194;49.010;8.414;2023-04-03T16:39:18;8.00;91.50
12264;DHT22;6194;49.010;8.414;2023-04-03T16:41:43;7.80;90.70
12264;DHT22;6194;49.010;8.414;2023-04-03T16:44:09;7.80;90.10
12264;DHT22;6194;49.010;8.414;2023-04-03T16:46:35;7.70;90.50
12264;DHT22;6194;49.010;8.414;2023-04-03T16:49:00;7.70;90.60
12264;DHT22;6194;49.010;8.414;2023-04-03T16:51:26;7.70;90.90
12264;DHT22;6194;49.010;8.414;2023-04-03T16:53:51;7.60;90.70
12264;DHT22;6194;49.010;8.414;2023-04-03T16:56:17;7.60;91.10
12264;DHT22;6194;49.010;8.414;2023-04-03T16:58:43;7.50;91.20
12264;DHT22;6194;49.010;8.414;2023-04-03T17:01:17;7.50;91.20
12264;DHT22;6194;49.010;8.414;2023-04-03T17:03:43;7.50;91.30
12264;DHT22;6194;49.010;8.414;2023-04-03T17:06:11;7.40;91.50
12264;DHT22;6194;49.010;8.414;2023-04-03T17:08:42;7.40;91.80
12264;DHT22;6194;49.010;8.414;2023-04-03T17:11:08;7.40;90.10
12264;DHT22;6194;49.010;8.414;2023-04-03T17:13:34;7.40;90.20
12264;DHT22;6194;49.010;8.414;2023-04-03T17:16:00;7.40;90.50
12264;DHT22;6194;49.010;8.414;2023-04-03T17:18:28;7.30;91.10
12264;DHT22;6194;49.010;8.414;2023-04-03T17:20:55;7.40;91.20
12264;DHT22;6194;49.010;8.414;2023-04-03T17:23:21;7.30;91.60
12264;DHT22;6194;49.010;8.414;2023-04-03T17:25:47;7.30;92.00
12264;DHT22;6194;49.010;8.414;2023-04-03T17:28:12;7.10;92.30
12264;DHT22;6194;49.010;8.414;2023-04-03T17:30:38;7.10;92.50
12264;DHT22;6194;49.010;8.414;2023-04-03T17:33:03;7.10;92.10
12264;DHT22;6194;49.010;8.414;2023-04-03T17:35:29;7.00;92.20
12264;DHT22;6194;49.010;8.414;2023-04-03T17:37:55;7.00;91.90
12264;DHT22;6194;49.010;8.414;2023-04-03T17:40:21;7.00;92.10
12264;DHT22;6194;49.010;8.414;2023-04-03T17:42:46;7.30;91.60
12264;DHT22;6194;49.010;8.414;2023-04-03T17:45:12;7.40;91.50
12264;DHT22;6194;49.010;8.414;2023-04-03T17:47:37;7.50;91.50
12264;DHT22;6194;49.010;8.414;2023-04-03T17:50:03;7.30;91.70
12264;DHT22;6194;49.010;8.414;2023-04-03T17:52:30;7.30;91.70
12264;DHT22;6194;49.010;8.414;2023-04-03T17:54:56;7.20;91.80
12264;DHT22;6194;49.010;8.414;2023-04-03T17:57:21;7.00;91.70
12264;DHT22;6194;49.010;8.414;2023-04-03T17:59:47;6.80;92.10
12264;DHT22;6194;49.010;8.414;2023-04-03T18:02:13;6.60;92.30
12264;DHT22;6194;49.010;8.414;2023-04-03T18:04:38;6.40;92.60
12264;DHT22;6194;49.010;8.414;2023-04-03T18:07:04;6.30;92.70
12264;DHT22;6194;49.010;8.414;2023-04-03T18:09:34;6.20;92.60